createdAt,value
2022-09-05T00:00:26.659Z,19.12
2022-09-05T00:03:07.893Z,19.12
2022-09-05T00:06:01.975Z,19.05
2022-09-05T00:08:47.388Z,19.02
2022-09-05T00:11:43.106Z,19.03
2022-09-05T00:15:15.097Z,19.01
2022-09-05T00:18:04.934Z,18.99
2022-09-05T00:24:31.280Z,18.91
2022-09-05T00:24:37.607Z,18.92
2022-09-05T00:26:50.280Z,18.88
2022-09-05T00:30:52.323Z,18.83
2022-09-05T00:32:33.232Z,18.80
2022-09-05T00:35:13.442Z,18.77
2022-09-05T00:37:46.887Z,18.72
2022-09-05T00:40:28.396Z,18.64
2022-09-05T00:43:01.314Z,18.56
2022-09-05T00:45:36.534Z,18.46
2022-09-05T00:48:19.455Z,18.57
2022-09-05T00:51:14.488Z,18.54
2022-09-05T00:53:56.930Z,18.55
2022-09-05T00:56:46.820Z,18.52
2022-09-05T00:59:59.560Z,18.51
2022-09-05T01:02:52.129Z,18.47
2022-09-05T01:05:37.456Z,18.35
2022-09-05T01:08:23.671Z,18.30
2022-09-05T01:10:59.610Z,18.28
2022-09-05T01:13:39.842Z,18.32
2022-09-05T01:16:17.370Z,18.29
2022-09-05T01:18:55.386Z,18.10
2022-09-05T01:22:05.726Z,18.07
2022-09-05T01:24:56.387Z,18.08
2022-09-05T01:28:30.898Z,18.08
2022-09-05T01:30:44.541Z,18.02
2022-09-05T01:33:25.265Z,18.02
2022-09-05T01:36:14.156Z,17.97
2022-09-05T01:39:53.577Z,18.00
2022-09-05T01:41:49.370Z,18.02
2022-09-05T01:44:31.431Z,18.00
2022-09-05T01:47:29.617Z,17.98
2022-09-05T01:50:10.285Z,17.96
2022-09-05T01:53:02.194Z,17.98
2022-09-05T01:56:04.926Z,17.96
2022-09-05T01:58:49.821Z,17.97
2022-09-05T02:01:32.892Z,17.93
2022-09-05T02:04:29.172Z,17.86
2022-09-05T02:07:20.044Z,17.85
2022-09-05T02:10:25.304Z,17.81
2022-09-05T02:13:03.533Z,17.86
2022-09-05T02:15:43.170Z,17.87
2022-09-05T02:18:44.215Z,17.80
2022-09-05T02:21:22.600Z,17.79
2022-09-05T02:24:03.734Z,17.74
2022-09-05T02:26:41.160Z,17.68
2022-09-05T02:29:29.417Z,17.73
2022-09-05T02:32:10.230Z,17.69
2022-09-05T02:34:46.216Z,17.72
2022-09-05T02:38:15.613Z,17.73
2022-09-05T02:45:07.048Z,17.68
2022-09-05T02:45:10.559Z,17.57
2022-09-05T02:46:10.715Z,17.54
2022-09-05T02:48:51.071Z,17.56
2022-09-05T02:57:23.388Z,17.54
2022-09-05T02:57:32.962Z,17.47
2022-09-05T02:58:07.380Z,17.40
2022-09-05T03:00:23.238Z,17.37
2022-09-05T03:03:20.802Z,17.36
2022-09-05T03:05:58.004Z,17.32
2022-09-05T03:08:54.406Z,17.24
2022-09-05T03:12:29.418Z,17.24
2022-09-05T03:15:32.307Z,17.15
2022-09-05T03:18:49.618Z,17.11
2022-09-05T03:21:48.683Z,17.15
2022-09-05T03:24:55.889Z,17.14
2022-09-05T03:28:04.341Z,17.16
2022-09-05T03:30:52.719Z,17.16
2022-09-05T03:33:47.517Z,17.15
2022-09-05T03:36:43.123Z,17.20
2022-09-05T03:39:48.684Z,17.17
2022-09-05T03:42:48.870Z,17.12
2022-09-05T03:45:51.549Z,17.11
2022-09-05T03:48:44.381Z,17.06
2022-09-05T03:57:08.006Z,17.04
2022-09-05T03:57:23.975Z,17.09
2022-09-05T03:58:22.653Z,17.04
2022-09-05T04:01:35.815Z,17.00
2022-09-05T04:08:09.673Z,16.93
2022-09-05T04:08:26.844Z,16.92
2022-09-05T04:09:52.140Z,16.96
2022-09-05T04:12:29.864Z,16.96
2022-09-05T04:15:03.247Z,16.97
2022-09-05T04:17:37.536Z,16.94
2022-09-05T04:20:13.918Z,16.92
2022-09-05T04:23:09.400Z,16.85
2022-09-05T04:25:58.507Z,16.79
2022-09-05T04:28:54.286Z,16.84
2022-09-05T04:31:36.084Z,16.85
2022-09-05T04:34:17.844Z,16.86
2022-09-05T04:36:48.793Z,16.79
2022-09-05T04:39:28.030Z,16.79
2022-09-05T04:42:03.794Z,16.76
2022-09-05T04:44:38.822Z,16.73
2022-09-05T04:47:15.597Z,16.78
2022-09-05T04:49:49.620Z,16.79
2022-09-05T04:52:43.686Z,16.68
2022-09-05T04:55:14.906Z,16.59
2022-09-05T04:57:50.602Z,16.62
2022-09-05T05:05:58.220Z,16.64
2022-09-05T05:06:14.660Z,16.63
2022-09-05T05:06:43.813Z,16.63
2022-09-05T05:09:08.585Z,16.63
2022-09-05T05:17:58.896Z,16.59
2022-09-05T05:17:59.476Z,16.62
2022-09-05T05:18:08.631Z,16.61
2022-09-05T05:20:42.529Z,16.65
2022-09-05T05:23:17.188Z,16.83
2022-09-05T05:25:51.214Z,16.87
2022-09-05T05:28:28.101Z,16.87
2022-09-05T05:31:08.379Z,16.86
2022-09-05T05:33:40.290Z,16.89
2022-09-05T05:36:16.149Z,16.92
2022-09-05T05:38:50.725Z,16.93
2022-09-05T05:41:26.381Z,16.99
2022-09-05T05:43:55.844Z,16.99
2022-09-05T05:46:35.015Z,17.03
2022-09-05T05:49:27.709Z,17.08
2022-09-05T05:52:40.891Z,17.13
2022-09-05T05:55:52.487Z,17.14
2022-09-05T05:58:35.163Z,17.20
2022-09-05T06:01:45.396Z,17.20
2022-09-05T06:04:49.045Z,17.18
2022-09-05T06:07:28.863Z,17.22
2022-09-05T06:14:49.381Z,17.36
2022-09-05T06:14:57.998Z,17.48
2022-09-05T06:17:06.318Z,17.47
2022-09-05T06:22:04.550Z,17.53
2022-09-05T06:23:53.135Z,17.54
2022-09-05T06:26:54.888Z,17.55
2022-09-05T06:29:38.432Z,17.63
2022-09-05T06:32:32.626Z,17.74
2022-09-05T06:35:23.186Z,17.82
2022-09-05T06:38:06.114Z,17.89
2022-09-05T06:40:43.358Z,17.90
2022-09-05T06:43:31.295Z,17.96
2022-09-05T06:46:11.763Z,18.05
2022-09-05T06:49:30.856Z,18.14
2022-09-05T06:52:28.626Z,18.26
2022-09-05T06:55:40.391Z,18.37
2022-09-05T06:58:44.674Z,18.41
2022-09-05T07:01:16.484Z,18.51
2022-09-05T07:04:11.242Z,18.63
2022-09-05T07:07:07.976Z,18.72
2022-09-05T07:09:52.190Z,18.82
2022-09-05T07:12:28.638Z,18.91
2022-09-05T07:15:08.932Z,18.99
2022-09-05T07:18:09.184Z,19.08
2022-09-05T07:21:15.939Z,19.15
2022-09-05T07:24:09.966Z,19.27
2022-09-05T07:26:52.506Z,19.39
2022-09-05T07:29:30.403Z,19.51
2022-09-05T07:32:00.702Z,19.66
2022-09-05T07:34:31.369Z,19.77
2022-09-05T07:37:14.356Z,19.79
2022-09-05T07:39:53.645Z,19.93
2022-09-05T07:42:27.337Z,20.06
2022-09-05T07:44:59.377Z,20.17
2022-09-05T07:47:32.549Z,20.18
2022-09-05T07:52:14.057Z,20.21
2022-09-05T07:57:00.911Z,20.27
2022-09-05T07:57:10.877Z,20.46
2022-09-05T07:58:49.698Z,20.56
2022-09-05T08:01:21.302Z,20.70
2022-09-05T08:03:55.687Z,20.74
2022-09-05T08:07:42.367Z,20.89
2022-09-05T08:10:08.810Z,21.06
2022-09-05T08:12:27.722Z,21.21
2022-09-05T08:15:05.912Z,21.22
2022-09-05T08:17:54.504Z,21.27
2022-09-05T08:20:32.643Z,21.35
2022-09-05T08:23:09.343Z,21.46
2022-09-05T08:25:56.562Z,21.62
2022-09-05T08:28:39.721Z,21.71
2022-09-05T08:31:11.489Z,21.71
2022-09-05T08:33:40.826Z,21.72
2022-09-05T08:36:19.467Z,21.81
2022-09-05T08:38:50.380Z,22.02
2022-09-05T08:41:49.468Z,22.16
2022-09-05T08:46:43.267Z,22.11
2022-09-05T08:47:25.718Z,22.16
2022-09-05T08:50:15.755Z,22.32
2022-09-05T08:52:56.272Z,22.51
2022-09-05T08:55:35.579Z,22.66
2022-09-05T08:58:18.190Z,22.88
2022-09-05T09:01:00.137Z,23.11
2022-09-05T09:03:43.934Z,23.42
2022-09-05T09:06:52.656Z,23.76
2022-09-05T09:09:47.931Z,23.85
2022-09-05T09:12:39.522Z,24.00
2022-09-05T09:15:19.882Z,24.04
2022-09-05T09:17:51.173Z,24.12
2022-09-05T09:20:30.895Z,24.21
2022-09-05T09:23:03.805Z,24.50
2022-09-05T09:25:39.730Z,24.69
2022-09-05T09:28:50.651Z,24.91
2022-09-05T09:31:41.801Z,24.89
2022-09-05T09:34:33.218Z,25.22
2022-09-05T09:37:54.356Z,25.41
2022-09-05T09:40:34.662Z,25.59
2022-09-05T09:43:09.630Z,25.65
2022-09-05T09:45:59.354Z,25.94
2022-09-05T09:49:02.818Z,26.25
2022-09-05T09:51:50.352Z,26.36
2022-09-05T09:54:54.372Z,26.61
2022-09-05T09:58:09.710Z,26.53
2022-09-05T10:00:51.140Z,26.61
2022-09-05T10:07:59.500Z,26.71
2022-09-05T10:10:49.408Z,27.15
2022-09-05T10:11:00.444Z,26.86
2022-09-05T10:13:26.772Z,27.52
2022-09-05T10:16:39.831Z,27.56
2022-09-05T10:22:54.374Z,27.68
2022-09-05T10:25:31.726Z,27.36
2022-09-05T10:28:09.051Z,27.53
2022-09-05T10:32:16.357Z,27.69
2022-09-05T10:35:14.310Z,27.87
2022-09-05T10:36:30.255Z,28.24
2022-09-05T10:39:17.510Z,28.69
2022-09-05T10:41:50.976Z,28.90
2022-09-05T10:44:29.191Z,29.35
2022-09-05T10:47:10.788Z,29.60
2022-09-05T10:49:43.499Z,29.65
2022-09-05T10:52:19.049Z,29.65
2022-09-05T10:55:15.272Z,29.89
2022-09-05T10:57:59.408Z,30.10
2022-09-05T11:02:19.199Z,30.50
2022-09-05T11:03:50.650Z,30.60
2022-09-05T11:06:25.138Z,30.45
2022-09-05T11:09:08.418Z,30.43
2022-09-05T11:11:46.095Z,30.48
2022-09-05T11:14:36.899Z,30.41
2022-09-05T11:17:15.095Z,30.36
2022-09-05T11:19:46.373Z,30.52
2022-09-05T11:22:23.532Z,30.63
2022-09-05T11:24:57.340Z,30.82
2022-09-05T11:27:35.368Z,30.93
2022-09-05T11:30:07.892Z,31.25
2022-09-05T11:39:42.491Z,31.37
2022-09-05T11:39:55.851Z,31.42
2022-09-05T11:39:57.302Z,31.70
2022-09-05T11:42:17.468Z,31.15
2022-09-05T11:44:58.226Z,31.54
2022-09-05T11:48:01.875Z,31.97
2022-09-05T11:50:54.628Z,32.14
2022-09-05T11:53:50.345Z,32.01
2022-09-05T11:56:49.535Z,32.18
2022-09-05T11:59:33.069Z,32.22
2022-09-05T12:02:37.695Z,32.34
2022-09-05T12:05:50.129Z,32.40
2022-09-05T12:08:29.857Z,32.36
2022-09-05T12:11:09.939Z,32.38
2022-09-05T12:13:46.747Z,32.47
2022-09-05T12:16:37.587Z,32.91
2022-09-05T12:19:20.159Z,32.96
2022-09-05T12:22:10.138Z,32.89
2022-09-05T12:25:24.839Z,32.61
2022-09-05T12:27:47.406Z,32.47
2022-09-05T12:30:32.808Z,32.81
2022-09-05T12:40:28.688Z,33.36
2022-09-05T12:40:59.533Z,33.60
2022-09-05T12:42:10.668Z,33.24
2022-09-05T12:42:40.063Z,33.63
2022-09-05T12:45:37.145Z,33.63
2022-09-05T12:48:13.221Z,33.81
2022-09-05T12:50:49.106Z,34.37
2022-09-05T12:53:20.411Z,34.24
2022-09-05T12:57:12.539Z,34.29
2022-09-05T13:03:03.726Z,34.31
2022-09-05T13:03:13.476Z,34.20
2022-09-05T13:04:32.443Z,34.60
2022-09-05T13:07:09.806Z,34.93
2022-09-05T13:11:13.832Z,34.85
2022-09-05T13:14:56.584Z,35.21
2022-09-05T13:15:36.379Z,35.26
2022-09-05T13:18:10.582Z,35.40
2022-09-05T13:20:45.711Z,35.54
2022-09-05T13:23:21.822Z,35.81
2022-09-05T13:25:58.402Z,35.85
2022-09-05T13:28:35.268Z,35.46
2022-09-05T13:37:55.709Z,35.30
2022-09-05T13:38:04.721Z,35.36
2022-09-05T13:38:05.949Z,35.12
2022-09-05T13:39:51.892Z,35.14
2022-09-05T13:42:25.795Z,35.57
2022-09-05T13:44:58.419Z,35.80
2022-09-05T13:47:51.428Z,35.99
2022-09-05T13:50:26.483Z,36.35
2022-09-05T13:53:05.325Z,36.19
2022-09-05T13:55:42.269Z,35.57
2022-09-05T13:58:18.331Z,35.33
2022-09-05T14:01:24.676Z,35.63
2022-09-05T14:07:51.731Z,35.78
2022-09-05T14:11:01.819Z,36.15
2022-09-05T14:13:40.997Z,35.92
2022-09-05T14:16:15.839Z,36.29
2022-09-05T14:19:02.594Z,36.33
2022-09-05T14:21:36.863Z,36.01
2022-09-05T14:24:13.736Z,35.89
2022-09-05T14:26:46.915Z,35.97
2022-09-05T14:29:23.734Z,35.98
2022-09-05T14:37:36.765Z,35.95
2022-09-05T14:37:53.762Z,35.72
2022-09-05T14:38:13.299Z,35.58
2022-09-05T14:41:26.079Z,35.57
2022-09-05T14:44:41.618Z,35.45
2022-09-05T14:47:36.276Z,35.41
2022-09-05T14:50:21.230Z,35.83
2022-09-05T14:56:09.713Z,35.55
2022-09-05T15:02:45.214Z,35.98
2022-09-05T15:02:54.724Z,36.00
2022-09-05T15:04:44.664Z,36.22
2022-09-05T15:07:20.385Z,36.44
2022-09-05T15:12:14.823Z,36.41
2022-09-05T15:13:00.659Z,36.15
2022-09-05T15:15:35.909Z,35.95
2022-09-05T15:18:09.318Z,35.79
2022-09-05T15:20:40.101Z,35.35
2022-09-05T15:23:16.273Z,35.34
2022-09-05T15:25:48.593Z,35.13
2022-09-05T15:28:22.911Z,34.81
2022-09-05T15:30:59.971Z,34.71
2022-09-05T15:33:32.710Z,34.68
2022-09-05T15:36:03.187Z,34.61
2022-09-05T15:38:38.736Z,34.53
2022-09-05T15:41:26.319Z,34.64
2022-09-05T15:44:00.113Z,34.48
2022-09-05T15:46:42.393Z,34.25
2022-09-05T15:49:23.592Z,34.24
2022-09-05T15:51:53.779Z,34.28
2022-09-05T15:54:37.429Z,34.11
2022-09-05T15:57:17.682Z,33.90
2022-09-05T15:59:53.428Z,33.99
2022-09-05T16:02:25.527Z,33.95
2022-09-05T16:10:29.713Z,34.06
2022-09-05T16:10:37.633Z,33.78
2022-09-05T16:11:58.150Z,33.61
2022-09-05T16:14:22.934Z,33.59
2022-09-05T16:23:20.838Z,33.52
2022-09-05T16:23:30.680Z,33.32
2022-09-05T16:23:31.434Z,33.13
2022-09-05T16:25:38.172Z,32.88
2022-09-05T16:28:11.999Z,32.76
2022-09-05T16:30:42.083Z,32.72
2022-09-05T16:33:17.507Z,32.54
2022-09-05T16:35:55.378Z,32.58
2022-09-05T16:38:49.087Z,32.50
2022-09-05T16:41:24.649Z,32.62
2022-09-05T16:43:57.631Z,32.67
2022-09-05T16:46:32.488Z,32.60
2022-09-05T16:49:12.134Z,32.51
2022-09-05T16:51:45.611Z,32.32
2022-09-05T16:54:30.113Z,32.24
2022-09-05T16:57:04.331Z,32.11
2022-09-05T16:59:35.938Z,31.92
2022-09-05T17:02:11.072Z,31.75
2022-09-05T17:05:04.059Z,31.58
2022-09-05T17:08:02.978Z,31.37
2022-09-05T17:10:41.947Z,31.13
2022-09-05T17:13:14.244Z,30.99
2022-09-05T17:15:52.916Z,30.86
2022-09-05T17:18:26.865Z,30.67
2022-09-05T17:21:01.696Z,30.51
2022-09-05T17:28:17.702Z,30.19
2022-09-05T17:29:25.035Z,29.87
2022-09-05T17:32:46.985Z,29.36
2022-09-05T17:35:20.314Z,29.15
2022-09-05T17:38:13.929Z,28.98
2022-09-05T17:41:06.592Z,28.92
2022-09-05T17:43:40.115Z,28.67
2022-09-05T17:46:16.991Z,28.56
2022-09-05T17:49:18.922Z,28.52
2022-09-05T17:52:23.334Z,28.38
2022-09-05T17:54:54.964Z,28.24
2022-09-05T17:57:42.411Z,28.11
2022-09-05T18:00:59.733Z,27.90
2022-09-05T18:04:17.825Z,27.69
2022-09-05T18:06:59.798Z,27.52
2022-09-05T18:10:00.500Z,27.47
2022-09-05T18:13:13.091Z,27.40
2022-09-05T18:16:10.615Z,27.29
2022-09-05T18:19:28.632Z,27.10
2022-09-05T18:21:53.580Z,27.06
2022-09-05T18:24:35.182Z,26.92
2022-09-05T18:27:37.882Z,26.70
2022-09-05T18:30:10.398Z,26.50
2022-09-05T18:32:41.584Z,26.46
2022-09-05T18:35:36.180Z,26.39
2022-09-05T18:38:19.178Z,26.36
2022-09-05T18:41:12.176Z,26.11
2022-09-05T18:44:12.571Z,25.90
2022-09-05T18:46:44.590Z,25.85
2022-09-05T18:50:25.752Z,25.84
2022-09-05T18:52:22.123Z,25.78
2022-09-05T18:56:11.460Z,25.74
2022-09-05T18:57:52.199Z,25.72
2022-09-05T19:00:45.002Z,25.74
2022-09-05T19:03:24.982Z,25.58
2022-09-05T19:06:36.887Z,25.54
2022-09-05T19:08:52.553Z,25.45
2022-09-05T19:11:29.558Z,25.40
2022-09-05T19:14:26.375Z,25.29
2022-09-05T19:17:03.857Z,25.20
2022-09-05T19:20:33.286Z,25.10
2022-09-05T19:23:10.154Z,25.00
2022-09-05T19:25:43.386Z,24.95
2022-09-05T19:30:28.398Z,24.87
2022-09-05T19:36:54.023Z,24.74
2022-09-05T19:37:03.031Z,24.78
2022-09-05T19:46:05.559Z,24.65
2022-09-05T19:47:30.412Z,24.54
2022-09-05T19:47:50.280Z,24.46
2022-09-05T19:48:26.815Z,24.45
2022-09-05T19:50:56.703Z,24.35
2022-09-05T19:53:26.191Z,24.37
2022-09-05T19:55:55.310Z,24.39
2022-09-05T19:58:24.540Z,24.28
2022-09-05T20:01:06.260Z,24.24
2022-09-05T20:03:41.699Z,24.20
2022-09-05T20:06:24.731Z,24.21
2022-09-05T20:09:10.986Z,24.12
2022-09-05T20:11:45.651Z,23.97
2022-09-05T20:14:24.606Z,23.89
2022-09-05T20:16:57.480Z,23.83
2022-09-05T20:19:32.748Z,23.85
2022-09-05T20:22:18.798Z,23.79
2022-09-05T20:24:55.459Z,23.65
2022-09-05T20:27:28.048Z,23.70
2022-09-05T20:29:59.719Z,23.64
2022-09-05T20:32:39.772Z,23.65
2022-09-05T20:37:36.116Z,23.57
2022-09-05T20:43:22.294Z,23.50
2022-09-05T20:43:22.842Z,23.46
2022-09-05T20:43:58.460Z,23.39
2022-09-05T20:49:00.834Z,23.31
2022-09-05T20:54:09.400Z,23.26
2022-09-05T20:54:20.957Z,23.19
2022-09-05T20:55:40.384Z,23.21
2022-09-05T20:58:13.111Z,23.21
2022-09-05T21:01:15.429Z,23.17
2022-09-05T21:03:38.987Z,23.11
2022-09-05T21:06:20.422Z,23.17
2022-09-05T21:08:49.494Z,23.09
2022-09-05T21:11:18.730Z,23.06
2022-09-05T21:13:53.462Z,23.01
2022-09-05T21:16:28.218Z,22.90
2022-09-05T21:18:56.646Z,22.93
2022-09-05T21:21:30.192Z,22.85
2022-09-05T21:24:15.891Z,22.83
2022-09-05T21:26:51.944Z,22.78
2022-09-05T21:29:27.250Z,22.68
2022-09-05T21:32:01.919Z,22.65
2022-09-05T21:34:34.285Z,22.64
2022-09-05T21:37:07.245Z,22.61
2022-09-05T21:39:58.350Z,22.58
2022-09-05T21:43:28.875Z,22.64
2022-09-05T21:47:42.352Z,22.60
2022-09-05T21:48:15.557Z,22.58
2022-09-05T21:50:48.929Z,22.58
2022-09-05T21:58:55.259Z,22.58
2022-09-05T21:59:13.961Z,22.55
2022-09-05T21:59:27.729Z,22.51
2022-09-05T22:02:05.298Z,22.49
2022-09-05T22:04:41.613Z,22.47
2022-09-05T22:07:26.367Z,22.40
2022-09-05T22:10:05.537Z,22.38
2022-09-05T22:12:35.898Z,22.33
2022-09-05T22:15:26.461Z,22.32
2022-09-05T22:18:17.836Z,22.29
2022-09-05T22:21:33.503Z,22.20
2022-09-05T22:23:44.290Z,22.08
2022-09-05T22:26:16.675Z,22.02
2022-09-05T22:28:48.879Z,21.99
2022-09-05T22:31:17.962Z,22.00
2022-09-05T22:33:50.834Z,21.99
2022-09-05T22:36:20.891Z,21.99
2022-09-05T22:38:49.297Z,22.01
2022-09-05T22:41:24.935Z,22.00
2022-09-05T22:43:59.435Z,21.92
2022-09-05T22:46:28.581Z,21.85
2022-09-05T22:48:57.048Z,21.80
2022-09-05T22:51:26.003Z,21.70
2022-09-05T22:53:54.568Z,21.60
2022-09-05T22:56:32.998Z,21.60
2022-09-05T22:59:02.000Z,21.52
2022-09-05T23:01:30.964Z,21.46
2022-09-05T23:04:00.444Z,21.50
2022-09-05T23:06:28.903Z,21.51
2022-09-05T23:08:58.140Z,21.50
2022-09-05T23:11:26.723Z,21.53
2022-09-05T23:13:57.473Z,21.47
2022-09-05T23:16:25.864Z,21.45
2022-09-05T23:18:55.162Z,21.46
2022-09-05T23:21:24.683Z,21.45
2022-09-05T23:23:53.797Z,21.43
2022-09-05T23:26:22.322Z,21.41
2022-09-05T23:28:51.867Z,21.41
2022-09-05T23:31:21.644Z,21.40
2022-09-05T23:33:51.508Z,21.37
2022-09-05T23:36:19.871Z,21.38
2022-09-05T23:38:49.079Z,21.39
2022-09-05T23:41:17.968Z,21.37
2022-09-05T23:43:47.254Z,21.37
2022-09-05T23:46:16.097Z,21.37
2022-09-05T23:48:46.352Z,21.34
2022-09-05T23:51:14.870Z,21.28
2022-09-05T23:53:44.306Z,21.26
2022-09-05T23:56:12.673Z,21.14
2022-09-05T23:58:41.813Z,21.07
